Terminal Aerodrome Forecast
Issued by NWS Mt. Holly, NJ

Home | Current Version | Previous Version | Text Only | Print | Product List | Glossary On
Versions: 1 2 3 4 5 6 7 8 9 10 11 12 13 14 15 16 17 18 19 20 21 22
187
FTUS41 KPHI 171125
TAFRDG
TAF
KRDG 171125Z 1712/1812 VRB03KT P6SM FEW070
     FM171800 19004KT P6SM FEW050 SCT070
     FM172200 18005KT P6SM BKN040 OVC080 PROB30 1808/1810 5SM -SHRA
      BKN020
     FM181000 16005KT 4SM -SHRA OVC010=

USA.gov is the U.S. government's official web portal to all federal, state and local government web resources and services.